Time;durP1;ratioP1;P1;durP2;ratioP2;P2;SDS_P1;SDS_P2;PMS_P1;PMS_P2;Temp;Humidity;BMP_temperature;BMP_pressure;BME280_temperature;BME280_humidity;BME280_pressure;Samples;Min_cycle;Max_cycle;Signal;HPM_P1;HPM_P2
2021/12/06 00:01:18;;;;;;;49.17;33.70;;;2.80;98.30;;;;;;4182246;28;20206;-79
2021/12/06 00:03:26;;;;;;;48.10;34.40;;;2.80;98.30;;;;;;4181859;28;20320;-79
2021/12/06 00:05:30;;;;;;;45.60;33.53;;;2.80;98.30;;;;;;4182243;28;20500;-79
2021/12/06 00:07:33;;;;;;;47.45;34.08;;;2.80;98.30;;;;;;4179234;28;20205;-79
2021/12/06 00:09:38;;;;;;;44.53;32.55;;;2.80;98.30;;;;;;4184082;28;20230;-78
2021/12/06 00:11:41;;;;;;;45.95;33.72;;;2.80;98.30;;;;;;4181355;28;20212;-79
2021/12/06 00:13:46;;;;;;;46.47;34.85;;;2.80;98.30;;;;;;4186926;28;20226;-80
2021/12/06 00:15:51;;;;;;;44.38;32.92;;;2.90;98.30;;;;;;4184281;28;20267;-79
2021/12/06 00:17:54;;;;;;;45.70;34.50;;;2.90;98.30;;;;;;4187453;28;20209;-79
2021/12/06 00:19:57;;;;;;;42.05;31.67;;;2.80;98.30;;;;;;4183572;28;20202;-79
2021/12/06 00:22:02;;;;;;;43.58;32.65;;;2.80;98.30;;;;;;4181528;28;20609;-79
2021/12/06 00:24:05;;;;;;;47.33;34.67;;;2.80;98.30;;;;;;4180590;28;20275;-79
2021/12/06 00:26:09;;;;;;;47.20;34.67;;;2.70;98.30;;;;;;4179714;28;20614;-79
2021/12/06 00:28:12;;;;;;;48.25;34.55;;;2.60;98.30;;;;;;4177540;28;20214;-78
2021/12/06 00:30:16;;;;;;;41.17;31.20;;;2.70;98.30;;;;;;4183737;28;20238;-78
2021/12/06 00:32:21;;;;;;;40.00;31.08;;;2.70;98.30;;;;;;4182722;28;20866;-79
2021/12/06 00:34:30;;;;;;;42.65;32.08;;;2.70;98.30;;;;;;4182146;28;20213;-78
2021/12/06 00:36:33;;;;;;;42.85;32.63;;;2.70;98.30;;;;;;4175664;28;20209;-79
2021/12/06 00:38:37;;;;;;;45.42;32.42;;;2.60;98.30;;;;;;4181222;28;20215;-79
2021/12/06 00:40:45;;;;;;;41.88;31.08;;;2.60;98.30;;;;;;4181130;28;20199;-78
2021/12/06 00:42:48;;;;;;;41.60;29.92;;;2.60;98.30;;;;;;4176223;28;20225;-79
2021/12/06 00:44:51;;;;;;;47.03;34.25;;;2.50;98.30;;;;;;4176897;28;20214;-79
2021/12/06 00:46:55;;;;;;;46.35;33.30;;;2.60;98.30;;;;;;4182071;28;20210;-79
2021/12/06 00:48:59;;;;;;;43.65;31.83;;;2.60;98.30;;;;;;4182159;28;20218;-79
2021/12/06 00:51:03;;;;;;;47.67;32.43;;;2.70;98.30;;;;;;4181182;28;20214;-78
2021/12/06 00:53:06;;;;;;;43.67;31.70;;;2.70;98.30;;;;;;4177568;28;20507;-78
2021/12/06 00:55:10;;;;;;;42.70;32.70;;;2.80;98.30;;;;;;4180454;28;20206;-79
2021/12/06 00:57:14;;;;;;;45.00;33.70;;;2.80;98.30;;;;;;4180412;28;20218;-78
2021/12/06 00:59:17;;;;;;;50.10;35.95;;;2.90;98.30;;;;;;4180940;28;20218;-79
2021/12/06 01:01:20;;;;;;;47.42;33.55;;;2.90;98.30;;;;;;4182687;28;20218;-79
2021/12/06 01:03:26;;;;;;;43.47;32.33;;;2.80;98.30;;;;;;4182042;28;20232;-79
2021/12/06 01:05:32;;;;;;;44.08;31.50;;;2.80;98.30;;;;;;4176306;28;20225;-79
2021/12/06 01:07:35;;;;;;;44.28;32.95;;;2.80;98.30;;;;;;4182138;28;20234;-79
2021/12/06 01:09:38;;;;;;;42.38;31.15;;;2.80;98.30;;;;;;4175656;28;20624;-79
2021/12/06 01:11:41;;;;;;;45.40;33.15;;;2.80;98.30;;;;;;4182407;28;20218;-79
2021/12/06 01:13:44;;;;;;;41.70;31.35;;;2.80;98.30;;;;;;4182229;28;20234;-79
2021/12/06 01:15:47;;;;;;;45.85;33.60;;;2.80;98.30;;;;;;4182072;28;20727;-79
2021/12/06 01:17:50;;;;;;;43.58;32.33;;;2.90;98.30;;;;;;4181377;28;20206;-79
2021/12/06 01:19:53;;;;;;;44.10;32.15;;;2.80;98.30;;;;;;4181772;28;20252;-78
2021/12/06 01:22:10;;;;;;;37.83;29.27;;;2.70;98.30;;;;;;4181489;28;20228;-79
2021/12/06 01:24:16;;;;;;;41.63;31.13;;;2.70;98.30;;;;;;4173471;28;20210;-79
2021/12/06 01:26:44;;;;;;;40.83;31.13;;;2.80;98.30;;;;;;4181803;28;20681;-79
2021/12/06 01:31:32;;;;;;;45.58;32.75;;;2.60;98.30;;;;;;4160999;28;20246;-79
2021/12/06 01:40:41;;;;;;;41.45;32.55;;;2.70;98.30;;;;;;4179418;28;20199;-78
2021/12/06 01:42:43;;;;;;;44.80;34.10;;;2.70;98.30;;;;;;4181186;28;20233;-79
2021/12/06 01:44:48;;;;;;;47.17;33.30;;;2.80;98.30;;;;;;4174567;28;20522;-78
2021/12/06 01:46:55;;;;;;;44.10;32.28;;;2.80;98.30;;;;;;4178450;28;20480;-78
2021/12/06 01:48:58;;;;;;;44.08;33.70;;;2.70;98.30;;;;;;4181294;28;20209;-78
2021/12/06 01:51:01;;;;;;;43.93;33.23;;;2.70;98.30;;;;;;4180271;28;20730;-78
2021/12/06 01:53:06;;;;;;;46.22;33.83;;;2.70;98.30;;;;;;4179674;28;20492;-78
2021/12/06 01:55:15;;;;;;;40.83;29.88;;;2.70;98.30;;;;;;4180070;28;20299;-78
2021/12/06 01:57:18;;;;;;;43.30;29.57;;;2.70;98.30;;;;;;4179766;28;20707;-78
2021/12/06 01:59:23;;;;;;;38.28;29.00;;;2.60;98.30;;;;;;4183717;28;20480;-79
2021/12/06 02:01:26;;;;;;;42.53;31.30;;;2.60;98.30;;;;;;4179295;28;20209;-78
2021/12/06 02:03:29;;;;;;;45.83;32.55;;;2.50;98.30;;;;;;4179391;28;20351;-78
2021/12/06 02:05:32;;;;;;;44.17;31.27;;;2.60;98.30;;;;;;4180179;28;20221;-79
2021/12/06 02:07:35;;;;;;;39.83;31.13;;;2.50;98.30;;;;;;4177275;28;20218;-79
2021/12/06 02:09:38;;;;;;;39.97;29.67;;;2.50;98.30;;;;;;4180292;28;20472;-78
2021/12/06 02:11:43;;;;;;;40.00;30.75;;;2.50;98.30;;;;;;4174708;28;20488;-78
2021/12/06 02:13:52;;;;;;;40.50;31.05;;;2.50;98.30;;;;;;4179678;28;20709;-78
2021/12/06 02:15:56;;;;;;;40.85;30.52;;;2.50;98.30;;;;;;4180277;28;20214;-78
2021/12/06 02:18:06;;;;;;;37.53;29.50;;;2.50;98.30;;;;;;4180419;28;20672;-78
2021/12/06 02:20:14;;;;;;;41.00;30.35;;;2.50;98.30;;;;;;4180246;28;20210;-78
2021/12/06 02:22:21;;;;;;;39.70;30.00;;;2.40;98.30;;;;;;4178685;28;20265;-79
2021/12/06 02:24:24;;;;;;;36.60;29.35;;;2.40;98.30;;;;;;4180228;28;20206;-78
2021/12/06 02:26:28;;;;;;;39.38;28.77;;;2.40;98.30;;;;;;4180806;28;20214;-78
2021/12/06 02:28:31;;;;;;;46.17;31.17;;;2.40;98.30;;;;;;4173128;28;20203;-79
2021/12/06 02:30:34;;;;;;;42.08;28.75;;;2.40;98.30;;;;;;4180593;28;20497;-78
2021/12/06 02:32:37;;;;;;;42.20;30.95;;;2.40;98.30;;;;;;4180678;28;20233;-78
2021/12/06 02:34:42;;;;;;;37.83;28.23;;;2.30;98.30;;;;;;4180015;28;20210;-79
2021/12/06 02:36:46;;;;;;;44.35;31.00;;;2.30;98.30;;;;;;4180479;28;20218;-78
2021/12/06 02:38:50;;;;;;;46.47;31.35;;;2.30;98.30;;;;;;4180402;28;20220;-78
2021/12/06 02:40:53;;;;;;;41.70;30.13;;;2.30;98.30;;;;;;4180560;28;20673;-79
2021/12/06 02:42:57;;;;;;;43.22;31.23;;;2.30;98.30;;;;;;4180021;28;20241;-78
2021/12/06 02:45:00;;;;;;;38.25;30.08;;;2.30;98.30;;;;;;4180164;28;20206;-78
2021/12/06 02:47:04;;;;;;;45.67;32.90;;;2.30;98.30;;;;;;4180265;28;20220;-79
2021/12/06 02:49:07;;;;;;;42.28;31.50;;;2.20;98.30;;;;;;4180127;28;20214;-79
2021/12/06 02:51:12;;;;;;;46.83;32.15;;;2.20;98.30;;;;;;4179494;28;20222;-78
2021/12/06 02:53:15;;;;;;;43.78;31.70;;;2.20;98.30;;;;;;4179694;28;20234;-77
2021/12/06 02:55:31;;;;;;;41.58;31.50;;;2.20;98.30;;;;;;4179159;28;20218;-78
2021/12/06 02:57:37;;;;;;;40.65;30.92;;;2.20;98.30;;;;;;4174646;28;20562;-78
2021/12/06 02:59:42;;;;;;;44.85;31.85;;;2.20;98.30;;;;;;4182707;28;20259;-78
2021/12/06 03:01:47;;;;;;;43.13;30.80;;;2.20;98.30;;;;;;4182588;28;20263;-78
2021/12/06 03:03:51;;;;;;;43.40;31.27;;;2.20;98.30;;;;;;4182152;28;20220;-79
2021/12/06 03:05:55;;;;;;;46.88;34.10;;;2.10;98.30;;;;;;4181227;28;20255;-78
2021/12/06 03:08:00;;;;;;;41.72;32.03;;;2.10;98.30;;;;;;4182469;28;20672;-78
2021/12/06 03:10:04;;;;;;;45.90;32.65;;;2.10;98.30;;;;;;4182680;28;20222;-78
2021/12/06 03:12:12;;;;;;;48.90;34.17;;;2.20;98.30;;;;;;4182674;28;20226;-78
2021/12/06 03:14:20;;;;;;;46.45;32.83;;;2.10;98.30;;;;;;4181821;28;20209;-78
2021/12/06 03:16:24;;;;;;;49.42;33.10;;;2.10;98.30;;;;;;4182167;28;20275;-78
2021/12/06 03:18:27;;;;;;;49.47;35.80;;;2.10;98.30;;;;;;4176160;28;20206;-78
2021/12/06 03:20:30;;;;;;;42.80;32.90;;;2.10;98.30;;;;;;4182300;28;20628;-78
2021/12/06 03:22:32;;;;;;;47.75;35.50;;;2.00;98.30;;;;;;4180049;28;20709;-78
2021/12/06 03:24:36;;;;;;;43.28;35.03;;;2.00;98.30;;;;;;4180995;28;20276;-77
2021/12/06 03:26:40;;;;;;;59.10;42.03;;;2.00;98.30;;;;;;4182119;28;20221;-77
2021/12/06 03:28:47;;;;;;;67.75;45.72;;;2.00;98.30;;;;;;4182010;28;20217;-77
2021/12/06 03:30:49;;;;;;;54.75;39.45;;;2.00;98.30;;;;;;4182099;28;20210;-77
2021/12/06 03:32:52;;;;;;;53.05;34.67;;;2.00;98.30;;;;;;4179665;28;20226;-77
2021/12/06 03:34:55;;;;;;;51.85;36.00;;;2.00;98.30;;;;;;4181819;28;20697;-77
2021/12/06 03:37:01;;;;;;;50.78;33.42;;;2.00;98.30;;;;;;4182138;28;20581;-78
2021/12/06 03:39:06;;;;;;;47.28;34.75;;;2.00;98.30;;;;;;4192163;28;20213;-77
2021/12/06 03:41:11;;;;;;;50.15;36.53;;;2.00;98.30;;;;;;4184872;28;20210;-77
2021/12/06 03:43:14;;;;;;;48.00;33.33;;;2.00;98.30;;;;;;4181531;28;20242;-77
2021/12/06 03:45:18;;;;;;;49.38;34.80;;;2.00;98.30;;;;;;4181894;28;20237;-78
2021/12/06 03:47:25;;;;;;;50.80;34.45;;;2.00;98.30;;;;;;4187601;28;20602;-77
2021/12/06 03:49:28;;;;;;;47.42;34.40;;;1.90;98.30;;;;;;4181430;28;20214;-77
2021/12/06 03:51:31;;;;;;;48.42;33.78;;;1.90;98.30;;;;;;4173550;28;20766;-77
2021/12/06 03:53:34;;;;;;;50.65;35.45;;;1.80;98.30;;;;;;4181257;28;20237;-77
2021/12/06 03:55:37;;;;;;;45.38;34.47;;;1.80;98.30;;;;;;4181550;28;20256;-77
2021/12/06 03:57:40;;;;;;;50.88;35.72;;;1.80;98.30;;;;;;4181505;28;20681;-78
2021/12/06 03:59:43;;;;;;;50.47;32.67;;;1.80;98.30;;;;;;4181734;28;20214;-78
2021/12/06 04:01:48;;;;;;;48.15;36.03;;;1.80;98.30;;;;;;4187101;28;20209;-78
2021/12/06 04:03:51;;;;;;;51.15;34.10;;;1.80;98.30;;;;;;4181604;28;20231;-78
2021/12/06 04:05:55;;;;;;;46.80;33.50;;;1.90;98.30;;;;;;4182283;28;20214;-78
2021/12/06 04:07:58;;;;;;;46.25;33.08;;;1.80;98.30;;;;;;4180863;28;20214;-78
2021/12/06 04:10:01;;;;;;;44.85;33.83;;;1.80;98.30;;;;;;4179556;28;20267;-78
2021/12/06 04:12:07;;;;;;;51.67;36.83;;;1.80;98.30;;;;;;4182061;28;20230;-78
2021/12/06 04:14:10;;;;;;;66.88;43.28;;;1.80;98.30;;;;;;4180926;28;20221;-78
2021/12/06 04:16:13;;;;;;;55.45;39.65;;;1.80;98.30;;;;;;4181266;28;20212;-78
2021/12/06 04:18:17;;;;;;;46.75;34.28;;;1.80;98.30;;;;;;4181496;28;20221;-78
2021/12/06 04:20:20;;;;;;;50.72;35.75;;;1.80;98.30;;;;;;4181522;28;20578;-77
2021/12/06 04:22:23;;;;;;;48.85;34.13;;;1.80;98.30;;;;;;4180963;28;20230;-78
2021/12/06 04:24:26;;;;;;;45.17;33.80;;;1.80;98.30;;;;;;4180843;28;20210;-78
2021/12/06 04:26:29;;;;;;;47.95;33.58;;;1.80;98.30;;;;;;4177313;28;20279;-78
2021/12/06 04:28:34;;;;;;;43.72;33.03;;;1.80;98.30;;;;;;4173351;28;20210;-78
2021/12/06 04:30:39;;;;;;;43.08;31.90;;;1.80;98.30;;;;;;4181145;28;20244;-78
2021/12/06 04:32:42;;;;;;;47.38;33.05;;;1.80;98.30;;;;;;4180815;28;20234;-78
2021/12/06 04:34:46;;;;;;;45.50;32.15;;;1.80;98.30;;;;;;4175662;28;20676;-78
2021/12/06 04:36:50;;;;;;;42.85;32.75;;;1.80;98.30;;;;;;4178893;28;20214;-78
2021/12/06 04:38:53;;;;;;;62.35;41.38;;;1.80;98.30;;;;;;4181117;28;20332;-78
2021/12/06 04:40:56;;;;;;;49.05;31.70;;;1.80;98.30;;;;;;4181197;28;20213;-78
2021/12/06 04:42:59;;;;;;;47.10;31.95;;;1.80;98.30;;;;;;4180583;28;20234;-78
2021/12/06 04:45:02;;;;;;;43.53;32.50;;;1.80;98.30;;;;;;4180588;28;20225;-77
2021/12/06 04:47:07;;;;;;;44.20;30.65;;;1.80;98.30;;;;;;4175562;28;20233;-78
2021/12/06 04:49:10;;;;;;;39.90;28.23;;;1.70;98.30;;;;;;4178057;28;20681;-78
2021/12/06 04:51:14;;;;;;;41.10;28.80;;;1.80;98.30;;;;;;4179078;28;20206;-78
2021/12/06 04:53:20;;;;;;;40.05;30.45;;;1.80;98.30;;;;;;4180104;28;20237;-78
2021/12/06 04:55:29;;;;;;;40.00;28.77;;;1.80;98.30;;;;;;4180362;28;20297;-78
2021/12/06 04:57:35;;;;;;;36.08;29.05;;;1.90;98.30;;;;;;4169196;28;20217;-78
2021/12/06 04:59:41;;;;;;;39.67;28.35;;;1.90;98.30;;;;;;4180659;28;20215;-78
2021/12/06 05:01:47;;;;;;;37.55;27.88;;;1.80;98.30;;;;;;4180698;28;20210;-78
2021/12/06 05:03:52;;;;;;;38.47;27.77;;;1.80;98.30;;;;;;4180338;28;20210;-78
2021/12/06 05:06:00;;;;;;;42.25;27.88;;;1.90;98.30;;;;;;4180541;28;20217;-78
2021/12/06 05:08:08;;;;;;;40.70;28.48;;;2.00;98.30;;;;;;4176988;28;20241;-77
2021/12/06 05:10:14;;;;;;;36.85;26.42;;;2.00;98.30;;;;;;4178352;28;20214;-78
2021/12/06 05:12:22;;;;;;;39.95;26.30;;;1.90;98.30;;;;;;4180563;28;20690;-78
2021/12/06 05:14:25;;;;;;;36.72;25.00;;;1.90;98.30;;;;;;4180459;28;20227;-77
2021/12/06 05:16:28;;;;;;;37.80;27.20;;;1.90;98.30;;;;;;4180277;28;20219;-78
2021/12/06 05:18:31;;;;;;;44.75;31.25;;;1.90;98.30;;;;;;4172627;28;20206;-78
2021/12/06 05:20:35;;;;;;;41.30;29.73;;;1.80;98.30;;;;;;4179658;28;20295;-78
2021/12/06 05:22:38;;;;;;;35.85;27.38;;;1.80;98.30;;;;;;4180353;28;20228;-78
2021/12/06 05:24:43;;;;;;;35.08;25.15;;;1.70;98.30;;;;;;4180035;28;20206;-78
2021/12/06 05:26:46;;;;;;;32.38;23.90;;;1.70;98.30;;;;;;4174297;28;20210;-78
2021/12/06 05:28:52;;;;;;;32.60;24.67;;;1.70;98.30;;;;;;4180370;28;20217;-78
2021/12/06 05:30:57;;;;;;;31.40;24.63;;;1.80;98.30;;;;;;4180251;28;20276;-78
2021/12/06 05:33:02;;;;;;;36.60;26.20;;;1.80;98.30;;;;;;4178344;28;20240;-79
2021/12/06 05:35:08;;;;;;;34.15;25.85;;;1.80;98.30;;;;;;4179463;28;20264;-78
2021/12/06 05:37:16;;;;;;;31.33;23.40;;;1.70;98.30;;;;;;4179858;28;20210;-77
2021/12/06 05:39:18;;;;;;;38.10;26.13;;;1.80;98.30;;;;;;4180164;28;20259;-77
2021/12/06 05:41:24;;;;;;;34.85;24.92;;;1.90;98.30;;;;;;4180033;28;20214;-78
2021/12/06 05:43:27;;;;;;;31.25;22.50;;;1.80;98.30;;;;;;4179637;28;20229;-78
2021/12/06 05:45:33;;;;;;;32.15;23.92;;;1.80;98.30;;;;;;4173712;28;20214;-78
2021/12/06 05:47:35;;;;;;;30.38;23.15;;;1.80;98.30;;;;;;4180030;28;20218;-77
2021/12/06 05:49:38;;;;;;;35.80;25.20;;;1.80;98.30;;;;;;4179925;28;20210;-77
2021/12/06 05:51:42;;;;;;;31.40;22.75;;;1.80;98.30;;;;;;4179902;28;20292;-78
2021/12/06 05:53:46;;;;;;;30.75;23.58;;;1.80;98.30;;;;;;4175626;28;20229;-78
2021/12/06 05:55:49;;;;;;;30.05;22.27;;;1.70;98.30;;;;;;4179718;28;20253;-77
2021/12/06 05:57:54;;;;;;;28.05;23.08;;;1.80;98.30;;;;;;4174927;28;20610;-77
2021/12/06 05:59:57;;;;;;;29.20;23.45;;;1.80;98.30;;;;;;4179529;28;20202;-78
2021/12/06 06:02:00;;;;;;;32.35;23.48;;;1.90;98.30;;;;;;4179782;28;20210;-78
2021/12/06 06:04:03;;;;;;;31.90;23.67;;;1.80;98.30;;;;;;4179592;28;20217;-78
2021/12/06 06:06:07;;;;;;;33.78;24.08;;;1.70;98.30;;;;;;4179601;28;20214;-78
2021/12/06 06:08:09;;;;;;;29.33;22.45;;;1.70;98.30;;;;;;4179806;28;20945;-78
2021/12/06 06:10:12;;;;;;;34.97;24.05;;;1.70;98.30;;;;;;4178850;28;20214;-78
2021/12/06 06:12:15;;;;;;;38.72;25.98;;;1.70;98.30;;;;;;4179710;28;20237;-78
2021/12/06 06:14:20;;;;;;;71.97;45.80;;;1.70;98.30;;;;;;4179097;28;20276;-78
2021/12/06 06:16:25;;;;;;;29.00;22.50;;;1.80;98.30;;;;;;4179695;28;20653;-78
2021/12/06 06:18:28;;;;;;;32.40;22.30;;;1.70;98.30;;;;;;4179481;28;20212;-78
2021/12/06 06:20:35;;;;;;;30.65;21.45;;;1.70;98.30;;;;;;4179188;28;20209;-77
2021/12/06 06:22:38;;;;;;;32.03;22.25;;;1.70;98.30;;;;;;4185687;28;20226;-78
2021/12/06 06:24:41;;;;;;;29.85;20.85;;;1.60;98.30;;;;;;4179389;28;20216;-78
2021/12/06 06:26:45;;;;;;;31.35;22.63;;;1.60;98.30;;;;;;4170857;28;20217;-77
2021/12/06 06:28:47;;;;;;;31.58;20.67;;;1.60;98.30;;;;;;4179175;28;20210;-78
2021/12/06 06:30:52;;;;;;;26.77;19.70;;;1.60;98.30;;;;;;4178611;28;20211;-77
2021/12/06 06:32:55;;;;;;;26.80;20.20;;;1.60;98.30;;;;;;4178995;28;20279;-77
2021/12/06 06:34:58;;;;;;;35.30;22.58;;;1.70;98.30;;;;;;4174564;28;20202;-77
2021/12/06 06:37:02;;;;;;;26.30;20.08;;;1.70;98.30;;;;;;4179558;28;20218;-77
2021/12/06 06:39:07;;;;;;;24.88;18.98;;;1.60;98.30;;;;;;4179497;28;20226;-78
2021/12/06 06:41:13;;;;;;;25.48;19.88;;;1.60;98.30;;;;;;4177006;28;20579;-77
2021/12/06 06:43:15;;;;;;;26.50;19.00;;;1.60;98.30;;;;;;4179043;28;20650;-78
2021/12/06 06:45:20;;;;;;;23.77;18.92;;;1.60;98.30;;;;;;4179335;28;20223;-78
2021/12/06 06:47:25;;;;;;;23.48;18.45;;;1.60;98.30;;;;;;4175683;28;20214;-78
2021/12/06 06:49:31;;;;;;;31.60;22.85;;;1.60;98.30;;;;;;4179008;28;20264;-78
2021/12/06 06:51:33;;;;;;;26.35;19.30;;;1.60;98.30;;;;;;4171278;28;20202;-77
2021/12/06 06:53:36;;;;;;;24.23;18.25;;;1.60;98.30;;;;;;4171583;28;20319;-77
2021/12/06 06:55:39;;;;;;;24.83;17.77;;;1.60;98.30;;;;;;4179516;28;20244;-77
2021/12/06 06:57:43;;;;;;;21.75;18.73;;;1.60;98.30;;;;;;4179206;28;20332;-77
2021/12/06 06:59:47;;;;;;;21.33;16.65;;;1.50;98.30;;;;;;4175750;28;20207;-78
2021/12/06 07:01:50;;;;;;;21.15;16.90;;;1.60;98.30;;;;;;4177425;28;20216;-78
2021/12/06 07:03:54;;;;;;;23.65;17.08;;;1.60;98.30;;;;;;4178021;28;20585;-77
2021/12/06 07:05:57;;;;;;;23.40;17.75;;;1.50;98.30;;;;;;4178927;28;20213;-77
2021/12/06 07:08:00;;;;;;;22.40;18.65;;;1.50;98.30;;;;;;4178184;28;20545;-78
2021/12/06 07:10:05;;;;;;;23.58;17.02;;;1.50;98.30;;;;;;4178423;28;20586;-78
2021/12/06 07:12:13;;;;;;;22.95;17.83;;;1.50;98.30;;;;;;4177289;28;20206;-78
2021/12/06 07:14:17;;;;;;;21.25;16.50;;;1.60;98.30;;;;;;4177404;28;20575;-78
2021/12/06 07:16:21;;;;;;;20.27;15.45;;;1.60;98.30;;;;;;4175219;28;20217;-77
2021/12/06 07:18:23;;;;;;;21.70;16.98;;;1.50;98.30;;;;;;4179068;28;20213;-77
2021/12/06 07:20:30;;;;;;;20.70;16.65;;;1.50;98.30;;;;;;4179648;28;20210;-79
2021/12/06 07:22:32;;;;;;;23.38;17.40;;;1.50;98.30;;;;;;4174452;28;20465;-79
2021/12/06 07:24:35;;;;;;;23.67;18.25;;;1.50;98.30;;;;;;4180850;28;21218;-79
2021/12/06 07:26:38;;;;;;;20.05;16.00;;;1.50;98.30;;;;;;4181280;28;20225;-79
2021/12/06 07:28:42;;;;;;;18.70;15.02;;;1.50;98.30;;;;;;4180785;28;20209;-79
2021/12/06 07:30:45;;;;;;;22.58;16.50;;;1.50;98.30;;;;;;4181732;28;20227;-79
2021/12/06 07:32:48;;;;;;;19.45;16.10;;;1.50;98.30;;;;;;4181139;28;20705;-79
2021/12/06 07:34:51;;;;;;;18.15;15.23;;;1.60;98.30;;;;;;4181420;28;20230;-79
2021/12/06 07:36:55;;;;;;;18.60;15.18;;;1.40;98.30;;;;;;4181067;28;20214;-78
2021/12/06 07:38:58;;;;;;;18.45;15.70;;;1.40;98.30;;;;;;4180579;28;20214;-79
2021/12/06 07:41:02;;;;;;;20.02;16.00;;;1.40;98.30;;;;;;4178048;28;20237;-79
2021/12/06 07:43:05;;;;;;;17.58;14.85;;;1.30;98.30;;;;;;4182645;28;20244;-79
2021/12/06 07:45:11;;;;;;;20.23;15.55;;;1.50;98.30;;;;;;4185015;28;20264;-79
2021/12/06 07:47:14;;;;;;;21.77;15.98;;;1.50;98.30;;;;;;4184623;28;20261;-79
2021/12/06 07:49:17;;;;;;;20.67;16.02;;;1.50;98.30;;;;;;4184831;28;20292;-79
2021/12/06 07:51:21;;;;;;;20.13;16.60;;;1.50;98.30;;;;;;4184461;28;20734;-79
2021/12/06 07:53:26;;;;;;;21.90;16.85;;;1.50;98.30;;;;;;4184346;28;20234;-79
2021/12/06 07:55:32;;;;;;;20.13;15.60;;;1.50;98.30;;;;;;4184848;28;20226;-79
2021/12/06 07:57:35;;;;;;;21.20;15.40;;;1.40;98.30;;;;;;4178711;28;20576;-79
2021/12/06 07:59:39;;;;;;;18.48;14.65;;;1.50;98.30;;;;;;4183754;28;20199;-80
2021/12/06 08:01:42;;;;;;;19.65;15.35;;;1.40;98.30;;;;;;4178712;28;20206;-79
2021/12/06 08:03:45;;;;;;;20.25;17.33;;;1.50;98.30;;;;;;4182781;28;20226;-79
2021/12/06 08:05:50;;;;;;;21.60;16.65;;;1.50;98.30;;;;;;4184335;28;20210;-79
2021/12/06 08:07:53;;;;;;;20.08;15.93;;;1.60;98.30;;;;;;4183282;28;20604;-79
2021/12/06 08:09:57;;;;;;;25.90;19.30;;;1.50;98.30;;;;;;4183190;28;20224;-79
2021/12/06 08:12:00;;;;;;;18.58;14.60;;;1.50;98.30;;;;;;4179752;28;20213;-79
2021/12/06 08:14:04;;;;;;;21.95;16.00;;;1.50;98.30;;;;;;4183973;28;20233;-79
2021/12/06 08:16:12;;;;;;;21.75;17.40;;;1.50;98.30;;;;;;4182467;28;20645;-79
2021/12/06 08:18:15;;;;;;;20.40;16.35;;;1.60;98.30;;;;;;4182775;28;20328;-79
2021/12/06 08:20:18;;;;;;;20.88;16.08;;;1.60;98.30;;;;;;4183091;28;20260;-80
2021/12/06 08:22:23;;;;;;;21.23;16.70;;;1.60;98.30;;;;;;4183884;28;20260;-79
2021/12/06 08:24:26;;;;;;;19.95;15.40;;;1.60;98.30;;;;;;4183932;28;20308;-79
2021/12/06 08:26:33;;;;;;;20.65;15.85;;;1.60;98.30;;;;;;4183131;28;20214;-79
2021/12/06 08:28:37;;;;;;;21.25;16.10;;;1.70;98.30;;;;;;4181586;28;20674;-79
2021/12/06 08:30:40;;;;;;;22.45;16.77;;;1.60;98.30;;;;;;4184253;28;20565;-79
2021/12/06 08:32:43;;;;;;;25.83;16.40;;;1.70;98.30;;;;;;4182676;28;20237;-78
2021/12/06 08:35:10;;;;;;;21.42;15.65;;;1.70;98.30;;;;;;4182728;28;20222;-79
2021/12/06 08:37:13;;;;;;;20.30;15.52;;;1.70;98.30;;;;;;4183360;28;20217;-78
2021/12/06 08:39:16;;;;;;;21.30;15.77;;;1.70;98.30;;;;;;4182827;28;20214;-79
2021/12/06 08:41:25;;;;;;;21.20;16.13;;;1.70;98.30;;;;;;4179826;28;20217;-78
2021/12/06 08:43:29;;;;;;;21.75;15.70;;;1.70;98.30;;;;;;4182192;28;20229;-78
2021/12/06 08:45:34;;;;;;;20.15;15.55;;;1.60;98.30;;;;;;4179138;28;20237;-78
2021/12/06 08:47:37;;;;;;;18.42;15.20;;;1.60;98.30;;;;;;4180744;28;20214;-77
2021/12/06 08:49:41;;;;;;;19.85;15.40;;;1.60;98.30;;;;;;4180114;28;20564;-76
2021/12/06 08:51:48;;;;;;;19.27;14.65;;;1.60;98.30;;;;;;4180342;28;20210;-76
2021/12/06 08:53:52;;;;;;;18.17;14.65;;;1.70;98.30;;;;;;4179301;28;20240;-77
2021/12/06 08:55:56;;;;;;;20.67;14.65;;;1.70;98.30;;;;;;4175347;28;20230;-79
2021/12/06 08:57:59;;;;;;;17.42;14.90;;;1.70;98.30;;;;;;4181719;28;20557;-78
2021/12/06 09:00:05;;;;;;;18.88;13.95;;;1.60;98.30;;;;;;4181296;28;20210;-78
2021/12/06 09:02:08;;;;;;;19.80;14.52;;;1.70;98.30;;;;;;4180962;28;20211;-78
2021/12/06 09:04:37;;;;;;;18.05;14.30;;;1.70;98.30;;;;;;4180333;28;20685;-79
2021/12/06 09:06:41;;;;;;;16.88;13.20;;;1.70;98.30;;;;;;4181883;28;20206;-78
2021/12/06 09:08:45;;;;;;;19.67;14.60;;;1.70;98.30;;;;;;4182125;28;20217;-78
2021/12/06 09:10:49;;;;;;;17.55;14.52;;;1.80;98.30;;;;;;4177229;28;20210;-78
2021/12/06 09:12:53;;;;;;;18.10;13.70;;;1.70;98.30;;;;;;4181123;28;20225;-78
2021/12/06 09:14:59;;;;;;;19.00;14.52;;;1.80;98.30;;;;;;4181996;28;20563;-79
2021/12/06 09:17:04;;;;;;;16.25;13.57;;;1.80;98.30;;;;;;4181246;28;20205;-78
2021/12/06 09:19:09;;;;;;;21.17;13.85;;;1.90;98.30;;;;;;4179570;28;20810;-78
2021/12/06 09:21:15;;;;;;;17.15;12.93;;;1.90;98.30;;;;;;4182048;28;20212;-78
2021/12/06 09:23:19;;;;;;;16.30;12.50;;;1.90;98.30;;;;;;4176514;28;20222;-78
2021/12/06 09:25:22;;;;;;;17.20;13.77;;;2.00;98.30;;;;;;4181418;28;20202;-78
2021/12/06 09:27:25;;;;;;;17.75;13.90;;;1.80;98.30;;;;;;4181332;28;20214;-78
2021/12/06 09:29:29;;;;;;;15.02;13.23;;;2.00;98.30;;;;;;4176471;28;20495;-78
2021/12/06 09:31:33;;;;;;;16.42;14.40;;;2.00;98.30;;;;;;4176593;28;20573;-78
2021/12/06 09:33:38;;;;;;;14.85;12.80;;;2.10;98.30;;;;;;4179728;28;20759;-78
2021/12/06 09:35:47;;;;;;;17.75;14.30;;;2.20;98.30;;;;;;4180594;28;20230;-78
2021/12/06 09:37:50;;;;;;;16.98;12.30;;;2.30;98.30;;;;;;4178142;28;20228;-78
2021/12/06 09:39:56;;;;;;;14.68;12.35;;;2.30;98.30;;;;;;4173065;28;20218;-79
2021/12/06 09:41:59;;;;;;;18.10;12.68;;;2.30;98.30;;;;;;4180480;28;20199;-78
2021/12/06 09:44:05;;;;;;;15.02;11.68;;;2.30;98.30;;;;;;4180692;28;20226;-78
2021/12/06 09:46:08;;;;;;;15.20;12.07;;;2.20;98.30;;;;;;4180015;28;20661;-78
2021/12/06 09:48:14;;;;;;;16.23;12.13;;;2.30;98.30;;;;;;4180489;28;20210;-78
2021/12/06 09:50:21;;;;;;;17.95;13.05;;;2.20;98.30;;;;;;4179331;28;20662;-78
2021/12/06 09:52:24;;;;;;;14.70;12.48;;;2.20;98.30;;;;;;4179159;28;20234;-78
2021/12/06 09:54:29;;;;;;;14.70;12.30;;;2.10;98.30;;;;;;4180263;28;20206;-78
2021/12/06 09:56:35;;;;;;;14.88;12.60;;;2.10;98.30;;;;;;4179822;28;20233;-79
2021/12/06 09:58:38;;;;;;;16.50;13.23;;;2.30;98.30;;;;;;4180014;28;20244;-79
2021/12/06 10:00:45;;;;;;;13.45;12.05;;;2.30;98.30;;;;;;4176296;28;20461;-78
2021/12/06 10:02:48;;;;;;;14.90;12.68;;;2.40;98.30;;;;;;4178117;28;20226;-79
2021/12/06 10:04:55;;;;;;;16.85;14.05;;;2.30;98.30;;;;;;4180338;28;20265;-78
2021/12/06 10:07:00;;;;;;;16.33;13.05;;;2.30;98.30;;;;;;4179204;28;20278;-78
2021/12/06 10:09:07;;;;;;;14.27;12.27;;;2.40;98.30;;;;;;4180474;28;20264;-78
2021/12/06 10:11:10;;;;;;;15.82;13.00;;;2.40;98.30;;;;;;4180243;28;20227;-78
2021/12/06 10:13:13;;;;;;;14.05;12.48;;;2.40;98.30;;;;;;4178954;28;20233;-78
2021/12/06 10:15:16;;;;;;;13.55;11.77;;;2.60;98.30;;;;;;4180147;28;20329;-78
2021/12/06 10:17:20;;;;;;;18.05;15.30;;;2.70;98.30;;;;;;4180549;28;20260;-78
2021/12/06 10:19:25;;;;;;;45.33;30.48;;;2.90;98.30;;;;;;4179643;28;20619;-78
2021/12/06 10:21:28;;;;;;;14.43;12.70;;;3.10;98.30;;;;;;4182467;28;20264;-78
2021/12/06 10:23:36;;;;;;;16.27;12.70;;;3.10;98.30;;;;;;4179329;28;20476;-78
2021/12/06 10:25:43;;;;;;;17.63;14.17;;;3.10;98.30;;;;;;4178980;28;20942;-78
2021/12/06 10:27:55;;;;;;;15.03;12.80;;;3.20;98.30;;;;;;4179513;28;20545;-78
2021/12/06 10:30:03;;;;;;;15.37;13.77;;;3.20;98.30;;;;;;4174650;28;20447;-78
2021/12/06 10:32:13;;;;;;;15.10;13.20;;;3.00;98.30;;;;;;4179729;28;20877;-78
2021/12/06 10:34:17;;;;;;;19.40;15.23;;;3.10;98.30;;;;;;4179670;28;20804;-78
2021/12/06 10:36:20;;;;;;;17.97;15.00;;;3.00;98.30;;;;;;4179393;28;20492;-78
2021/12/06 10:38:26;;;;;;;18.07;14.17;;;2.90;98.30;;;;;;4174699;28;20472;-78
2021/12/06 10:40:33;;;;;;;17.70;14.77;;;2.80;98.30;;;;;;4179467;28;20868;-78
2021/12/06 10:42:39;;;;;;;20.03;15.07;;;2.70;98.30;;;;;;4172783;28;20916;-78
2021/12/06 10:44:51;;;;;;;16.87;15.07;;;2.70;98.30;;;;;;4176810;28;20529;-78
2021/12/06 10:46:54;;;;;;;19.80;16.00;;;2.60;98.30;;;;;;4179070;28;20469;-78
2021/12/06 10:48:59;;;;;;;20.17;16.58;;;2.70;98.30;;;;;;4175062;28;20451;-78